sensor_id;sensor_type;location;lat;lon;timestamp;P1;durP1;ratioP1;P2;durP2;ratioP2
49340;SDS011;35209;51.050;13.678;2022-08-21T00:02:16;60.33;;;42.55;;
49340;SDS011;35209;51.050;13.678;2022-08-21T00:07:20;50.33;;;43.13;;
49340;SDS011;35209;51.050;13.678;2022-08-21T00:12:22;54.65;;;41.10;;
49340;SDS011;35209;51.050;13.678;2022-08-21T00:17:24;53.13;;;42.55;;
49340;SDS011;35209;51.050;13.678;2022-08-21T00:22:25;56.05;;;44.42;;
49340;SDS011;35209;51.050;13.678;2022-08-21T00:27:27;64.65;;;46.15;;
49340;SDS011;35209;51.050;13.678;2022-08-21T00:32:29;66.60;;;48.40;;
49340;SDS011;35209;51.050;13.678;2022-08-21T00:37:30;61.63;;;46.95;;
49340;SDS011;35209;51.050;13.678;2022-08-21T00:42:35;51.65;;;42.65;;
49340;SDS011;35209;51.050;13.678;2022-08-21T00:47:37;64.07;;;48.67;;
49340;SDS011;35209;51.050;13.678;2022-08-21T00:52:41;70.75;;;49.28;;
49340;SDS011;35209;51.050;13.678;2022-08-21T00:57:47;67.05;;;49.42;;
49340;SDS011;35209;51.050;13.678;2022-08-21T01:02:52;73.25;;;49.53;;
49340;SDS011;35209;51.050;13.678;2022-08-21T01:07:54;63.15;;;48.20;;
49340;SDS011;35209;51.050;13.678;2022-08-21T01:12:58;73.47;;;53.70;;
49340;SDS011;35209;51.050;13.678;2022-08-21T01:18:00;63.53;;;46.88;;
49340;SDS011;35209;51.050;13.678;2022-08-21T01:23:06;43.80;;;34.10;;
49340;SDS011;35209;51.050;13.678;2022-08-21T01:28:11;25.08;;;22.65;;
49340;SDS011;35209;51.050;13.678;2022-08-21T01:33:14;17.05;;;15.85;;
49340;SDS011;35209;51.050;13.678;2022-08-21T01:38:17;9.55;;;8.95;;
49340;SDS011;35209;51.050;13.678;2022-08-21T01:43:19;10.40;;;9.70;;
49340;SDS011;35209;51.050;13.678;2022-08-21T01:48:25;12.90;;;12.00;;
49340;SDS011;35209;51.050;13.678;2022-08-21T01:53:28;13.07;;;12.27;;
49340;SDS011;35209;51.050;13.678;2022-08-21T01:58:34;12.30;;;11.50;;
49340;SDS011;35209;51.050;13.678;2022-08-21T02:03:36;13.15;;;12.18;;
49340;SDS011;35209;51.050;13.678;2022-08-21T02:08:38;12.38;;;11.63;;
49340;SDS011;35209;51.050;13.678;2022-08-21T02:13:40;11.77;;;11.05;;
49340;SDS011;35209;51.050;13.678;2022-08-21T02:18:42;12.57;;;11.88;;
49340;SDS011;35209;51.050;13.678;2022-08-21T02:23:44;13.57;;;12.70;;
49340;SDS011;35209;51.050;13.678;2022-08-21T02:28:46;15.02;;;14.02;;
49340;SDS011;35209;51.050;13.678;2022-08-21T02:33:49;16.00;;;15.00;;
49340;SDS011;35209;51.050;13.678;2022-08-21T02:38:50;16.42;;;15.32;;
49340;SDS011;35209;51.050;13.678;2022-08-21T02:43:52;15.80;;;14.80;;
49340;SDS011;35209;51.050;13.678;2022-08-21T02:48:54;16.60;;;15.43;;
49340;SDS011;35209;51.050;13.678;2022-08-21T02:53:55;15.85;;;14.95;;
49340;SDS011;35209;51.050;13.678;2022-08-21T02:58:57;15.95;;;15.05;;
49340;SDS011;35209;51.050;13.678;2022-08-21T03:03:59;15.88;;;14.88;;
49340;SDS011;35209;51.050;13.678;2022-08-21T03:09:00;17.73;;;16.63;;
49340;SDS011;35209;51.050;13.678;2022-08-21T03:14:02;16.52;;;15.52;;
49340;SDS011;35209;51.050;13.678;2022-08-21T03:19:04;15.90;;;14.98;;
49340;SDS011;35209;51.050;13.678;2022-08-21T03:24:05;20.48;;;19.13;;
49340;SDS011;35209;51.050;13.678;2022-08-21T03:29:08;19.88;;;18.60;;
49340;SDS011;35209;51.050;13.678;2022-08-21T03:34:09;20.38;;;18.90;;
49340;SDS011;35209;51.050;13.678;2022-08-21T03:39:11;21.80;;;20.40;;
49340;SDS011;35209;51.050;13.678;2022-08-21T03:44:13;25.95;;;23.95;;
49340;SDS011;35209;51.050;13.678;2022-08-21T03:49:15;22.58;;;20.98;;
49340;SDS011;35209;51.050;13.678;2022-08-21T03:54:17;23.55;;;21.95;;
49340;SDS011;35209;51.050;13.678;2022-08-21T03:59:19;20.17;;;18.77;;
49340;SDS011;35209;51.050;13.678;2022-08-21T04:04:21;21.65;;;20.23;;
49340;SDS011;35209;51.050;13.678;2022-08-21T04:09:23;20.40;;;19.10;;
49340;SDS011;35209;51.050;13.678;2022-08-21T04:14:26;21.98;;;20.48;;
49340;SDS011;35209;51.050;13.678;2022-08-21T04:19:27;23.08;;;21.58;;
49340;SDS011;35209;51.050;13.678;2022-08-21T04:24:30;23.63;;;22.02;;
49340;SDS011;35209;51.050;13.678;2022-08-21T04:29:31;24.75;;;23.05;;
49340;SDS011;35209;51.050;13.678;2022-08-21T04:34:38;25.73;;;23.67;;
49340;SDS011;35209;51.050;13.678;2022-08-21T04:39:40;24.10;;;22.45;;
49340;SDS011;35209;51.050;13.678;2022-08-21T04:44:42;22.30;;;20.80;;
49340;SDS011;35209;51.050;13.678;2022-08-21T04:49:43;22.60;;;21.10;;
49340;SDS011;35209;51.050;13.678;2022-08-21T04:54:45;22.25;;;20.80;;
49340;SDS011;35209;51.050;13.678;2022-08-21T04:59:55;23.13;;;21.63;;
49340;SDS011;35209;51.050;13.678;2022-08-21T05:04:56;25.40;;;23.80;;
49340;SDS011;35209;51.050;13.678;2022-08-21T05:09:59;28.05;;;26.08;;
49340;SDS011;35209;51.050;13.678;2022-08-21T05:15:02;26.08;;;24.10;;
49340;SDS011;35209;51.050;13.678;2022-08-21T05:20:04;29.27;;;26.45;;
49340;SDS011;35209;51.050;13.678;2022-08-21T05:25:07;31.50;;;28.83;;
49340;SDS011;35209;51.050;13.678;2022-08-21T05:30:11;36.97;;;33.72;;
49340;SDS011;35209;51.050;13.678;2022-08-21T05:35:12;33.78;;;31.23;;
49340;SDS011;35209;51.050;13.678;2022-08-21T05:40:14;34.60;;;31.25;;
49340;SDS011;35209;51.050;13.678;2022-08-21T05:50:45;35.83;;;32.38;;
49340;SDS011;35209;51.050;13.678;2022-08-21T05:55:48;32.17;;;29.23;;
49340;SDS011;35209;51.050;13.678;2022-08-21T06:00:51;24.38;;;22.88;;
49340;SDS011;35209;51.050;13.678;2022-08-21T06:05:54;26.77;;;24.92;;
49340;SDS011;35209;51.050;13.678;2022-08-21T06:10:58;25.85;;;24.00;;
49340;SDS011;35209;51.050;13.678;2022-08-21T06:16:11;25.25;;;23.23;;
49340;SDS011;35209;51.050;13.678;2022-08-21T06:21:16;23.80;;;22.30;;
49340;SDS011;35209;51.050;13.678;2022-08-21T06:26:18;22.80;;;21.38;;
49340;SDS011;35209;51.050;13.678;2022-08-21T06:31:22;20.73;;;19.52;;
49340;SDS011;35209;51.050;13.678;2022-08-21T06:36:25;19.35;;;18.17;;
49340;SDS011;35209;51.050;13.678;2022-08-21T06:41:27;21.80;;;20.40;;
49340;SDS011;35209;51.050;13.678;2022-08-21T06:46:30;21.98;;;20.75;;
49340;SDS011;35209;51.050;13.678;2022-08-21T06:51:32;20.88;;;19.58;;
49340;SDS011;35209;51.050;13.678;2022-08-21T06:56:34;21.50;;;20.20;;
49340;SDS011;35209;51.050;13.678;2022-08-21T07:01:38;21.45;;;20.00;;
49340;SDS011;35209;51.050;13.678;2022-08-21T07:06:40;19.58;;;18.38;;
49340;SDS011;35209;51.050;13.678;2022-08-21T07:11:42;22.10;;;20.40;;
49340;SDS011;35209;51.050;13.678;2022-08-21T07:16:49;20.70;;;19.50;;
49340;SDS011;35209;51.050;13.678;2022-08-21T07:21:53;20.27;;;18.98;;
49340;SDS011;35209;51.050;13.678;2022-08-21T07:26:59;20.13;;;18.90;;
49340;SDS011;35209;51.050;13.678;2022-08-21T07:32:01;20.05;;;18.85;;
49340;SDS011;35209;51.050;13.678;2022-08-21T07:37:02;19.67;;;18.33;;
49340;SDS011;35209;51.050;13.678;2022-08-21T07:42:10;19.67;;;18.50;;
49340;SDS011;35209;51.050;13.678;2022-08-21T07:47:12;19.67;;;18.17;;
49340;SDS011;35209;51.050;13.678;2022-08-21T07:52:13;19.13;;;17.88;;
49340;SDS011;35209;51.050;13.678;2022-08-21T07:57:15;19.25;;;17.95;;
49340;SDS011;35209;51.050;13.678;2022-08-21T08:02:22;20.00;;;18.60;;
49340;SDS011;35209;51.050;13.678;2022-08-21T08:07:29;17.00;;;15.90;;
49340;SDS011;35209;51.050;13.678;2022-08-21T08:12:30;15.98;;;14.77;;
49340;SDS011;35209;51.050;13.678;2022-08-21T08:17:32;17.00;;;15.90;;
49340;SDS011;35209;51.050;13.678;2022-08-21T08:22:35;16.08;;;15.07;;
49340;SDS011;35209;51.050;13.678;2022-08-21T08:27:39;14.65;;;13.85;;
49340;SDS011;35209;51.050;13.678;2022-08-21T08:32:41;15.00;;;14.15;;
49340;SDS011;35209;51.050;13.678;2022-08-21T08:37:43;11.93;;;11.13;;
49340;SDS011;35209;51.050;13.678;2022-08-21T08:42:52;14.00;;;13.10;;
49340;SDS011;35209;51.050;13.678;2022-08-21T08:47:59;12.07;;;11.20;;
49340;SDS011;35209;51.050;13.678;2022-08-21T08:53:06;10.95;;;10.10;;
49340;SDS011;35209;51.050;13.678;2022-08-21T08:58:18;11.00;;;10.38;;
49340;SDS011;35209;51.050;13.678;2022-08-21T09:03:25;10.63;;;9.68;;
49340;SDS011;35209;51.050;13.678;2022-08-21T09:20:08;6.55;;;6.05;;
49340;SDS011;35209;51.050;13.678;2022-08-21T09:25:20;8.23;;;5.95;;
49340;SDS011;35209;51.050;13.678;2022-08-21T09:30:28;5.38;;;4.90;;
49340;SDS011;35209;51.050;13.678;2022-08-21T09:35:32;4.68;;;4.03;;
49340;SDS011;35209;51.050;13.678;2022-08-21T09:40:38;9.30;;;4.47;;
49340;SDS011;35209;51.050;13.678;2022-08-21T09:45:44;12.27;;;3.78;;
49340;SDS011;35209;51.050;13.678;2022-08-21T09:50:48;5.82;;;3.80;;
49340;SDS011;35209;51.050;13.678;2022-08-21T09:56:04;3.47;;;3.17;;
49340;SDS011;35209;51.050;13.678;2022-08-21T10:01:41;4.80;;;3.90;;
49340;SDS011;35209;51.050;13.678;2022-08-21T10:06:45;4.95;;;2.90;;
49340;SDS011;35209;51.050;13.678;2022-08-21T10:11:58;4.10;;;2.30;;
49340;SDS011;35209;51.050;13.678;2022-08-21T10:27:57;5.80;;;2.60;;
49340;SDS011;35209;51.050;13.678;2022-08-21T10:33:19;3.25;;;2.08;;
49340;SDS011;35209;51.050;13.678;2022-08-21T10:49:14;5.88;;;2.78;;
49340;SDS011;35209;51.050;13.678;2022-08-21T10:55:25;4.18;;;2.22;;
49340;SDS011;35209;51.050;13.678;2022-08-21T11:00:05;3.55;;;1.83;;
49340;SDS011;35209;51.050;13.678;2022-08-21T11:10:25;3.97;;;2.00;;
49340;SDS011;35209;51.050;13.678;2022-08-21T11:15:43;3.90;;;1.52;;
49340;SDS011;35209;51.050;13.678;2022-08-21T11:26:32;4.72;;;1.80;;
49340;SDS011;35209;51.050;13.678;2022-08-21T11:42:39;3.28;;;1.33;;
49340;SDS011;35209;51.050;13.678;2022-08-21T11:53:17;2.60;;;1.13;;
49340;SDS011;35209;51.050;13.678;2022-08-21T11:58:43;3.88;;;1.70;;
49340;SDS011;35209;51.050;13.678;2022-08-21T12:03:57;4.05;;;1.27;;
49340;SDS011;35209;51.050;13.678;2022-08-21T12:09:04;3.08;;;1.38;;
49340;SDS011;35209;51.050;13.678;2022-08-21T12:29:30;4.40;;;1.60;;
49340;SDS011;35209;51.050;13.678;2022-08-21T12:34:39;2.55;;;1.20;;
49340;SDS011;35209;51.050;13.678;2022-08-21T12:39:47;4.43;;;1.35;;
49340;SDS011;35209;51.050;13.678;2022-08-21T12:44:55;3.25;;;1.23;;
49340;SDS011;35209;51.050;13.678;2022-08-21T12:50:08;3.25;;;1.23;;
49340;SDS011;35209;51.050;13.678;2022-08-21T12:55:13;5.20;;;1.30;;
49340;SDS011;35209;51.050;13.678;2022-08-21T13:00:21;4.88;;;1.33;;
49340;SDS011;35209;51.050;13.678;2022-08-21T13:05:35;2.83;;;1.30;;
49340;SDS011;35209;51.050;13.678;2022-08-21T13:10:39;4.43;;;1.38;;
49340;SDS011;35209;51.050;13.678;2022-08-21T13:15:42;3.60;;;1.35;;
49340;SDS011;35209;51.050;13.678;2022-08-21T13:20:48;3.92;;;1.40;;
49340;SDS011;35209;51.050;13.678;2022-08-21T13:25:52;3.60;;;1.20;;
49340;SDS011;35209;51.050;13.678;2022-08-21T13:30:55;3.53;;;1.17;;
49340;SDS011;35209;51.050;13.678;2022-08-21T13:41:06;6.35;;;1.35;;
49340;SDS011;35209;51.050;13.678;2022-08-21T13:46:14;4.65;;;1.60;;
49340;SDS011;35209;51.050;13.678;2022-08-21T13:51:16;4.05;;;1.33;;
49340;SDS011;35209;51.050;13.678;2022-08-21T13:56:25;2.50;;;1.02;;
49340;SDS011;35209;51.050;13.678;2022-08-21T14:01:33;2.83;;;1.30;;
49340;SDS011;35209;51.050;13.678;2022-08-21T14:06:41;2.85;;;1.05;;
49340;SDS011;35209;51.050;13.678;2022-08-21T14:11:42;2.95;;;1.10;;
49340;SDS011;35209;51.050;13.678;2022-08-21T14:16:46;3.88;;;1.30;;
49340;SDS011;35209;51.050;13.678;2022-08-21T14:21:54;5.30;;;1.15;;
49340;SDS011;35209;51.050;13.678;2022-08-21T14:26:57;2.55;;;0.95;;
49340;SDS011;35209;51.050;13.678;2022-08-21T14:32:27;3.15;;;1.30;;
49340;SDS011;35209;51.050;13.678;2022-08-21T14:37:33;4.38;;;0.90;;
49340;SDS011;35209;51.050;13.678;2022-08-21T14:42:35;3.20;;;1.20;;
49340;SDS011;35209;51.050;13.678;2022-08-21T14:47:39;3.40;;;1.02;;
49340;SDS011;35209;51.050;13.678;2022-08-21T14:52:41;4.35;;;1.10;;
49340;SDS011;35209;51.050;13.678;2022-08-21T14:57:44;3.55;;;1.00;;
49340;SDS011;35209;51.050;13.678;2022-08-21T15:02:49;2.00;;;1.02;;
49340;SDS011;35209;51.050;13.678;2022-08-21T15:07:52;3.15;;;1.00;;
49340;SDS011;35209;51.050;13.678;2022-08-21T15:12:53;3.10;;;0.93;;
49340;SDS011;35209;51.050;13.678;2022-08-21T15:17:55;3.85;;;1.10;;
49340;SDS011;35209;51.050;13.678;2022-08-21T15:22:57;5.35;;;1.25;;
49340;SDS011;35209;51.050;13.678;2022-08-21T15:27:59;1.85;;;1.00;;
49340;SDS011;35209;51.050;13.678;2022-08-21T15:33:01;2.60;;;1.23;;
49340;SDS011;35209;51.050;13.678;2022-08-21T15:38:03;4.47;;;1.10;;
49340;SDS011;35209;51.050;13.678;2022-08-21T15:43:05;2.83;;;1.20;;
49340;SDS011;35209;51.050;13.678;2022-08-21T15:48:07;1.77;;;1.00;;
49340;SDS011;35209;51.050;13.678;2022-08-21T15:53:08;2.47;;;1.38;;
49340;SDS011;35209;51.050;13.678;2022-08-21T15:58:14;3.30;;;1.20;;
49340;SDS011;35209;51.050;13.678;2022-08-21T16:03:16;2.50;;;1.10;;
49340;SDS011;35209;51.050;13.678;2022-08-21T16:13:29;2.95;;;1.38;;
49340;SDS011;35209;51.050;13.678;2022-08-21T16:18:38;3.22;;;1.20;;
49340;SDS011;35209;51.050;13.678;2022-08-21T16:23:40;4.30;;;1.90;;
49340;SDS011;35209;51.050;13.678;2022-08-21T16:28:43;2.70;;;1.52;;
49340;SDS011;35209;51.050;13.678;2022-08-21T16:33:50;2.95;;;1.20;;
49340;SDS011;35209;51.050;13.678;2022-08-21T16:38:58;2.97;;;1.40;;
49340;SDS011;35209;51.050;13.678;2022-08-21T16:44:01;4.70;;;1.05;;
49340;SDS011;35209;51.050;13.678;2022-08-21T16:49:04;2.28;;;1.45;;
49340;SDS011;35209;51.050;13.678;2022-08-21T16:54:06;2.55;;;1.35;;
49340;SDS011;35209;51.050;13.678;2022-08-21T16:59:07;1.80;;;1.05;;
49340;SDS011;35209;51.050;13.678;2022-08-21T17:04:11;2.25;;;1.05;;
49340;SDS011;35209;51.050;13.678;2022-08-21T17:09:13;2.53;;;1.50;;
49340;SDS011;35209;51.050;13.678;2022-08-21T17:14:19;2.85;;;1.40;;
49340;SDS011;35209;51.050;13.678;2022-08-21T17:19:23;4.05;;;1.67;;
49340;SDS011;35209;51.050;13.678;2022-08-21T17:24:25;7.03;;;2.78;;
49340;SDS011;35209;51.050;13.678;2022-08-21T17:29:28;4.28;;;1.58;;
49340;SDS011;35209;51.050;13.678;2022-08-21T17:34:33;7.38;;;2.63;;
49340;SDS011;35209;51.050;13.678;2022-08-21T17:39:35;3.42;;;2.08;;
49340;SDS011;35209;51.050;13.678;2022-08-21T17:44:38;3.42;;;1.80;;
49340;SDS011;35209;51.050;13.678;2022-08-21T17:49:42;2.53;;;1.40;;
49340;SDS011;35209;51.050;13.678;2022-08-21T17:54:44;2.63;;;1.60;;
49340;SDS011;35209;51.050;13.678;2022-08-21T17:59:45;2.63;;;1.45;;
49340;SDS011;35209;51.050;13.678;2022-08-21T18:04:48;2.90;;;1.20;;
49340;SDS011;35209;51.050;13.678;2022-08-21T18:09:51;4.38;;;1.70;;
49340;SDS011;35209;51.050;13.678;2022-08-21T18:14:57;3.65;;;1.60;;
49340;SDS011;35209;51.050;13.678;2022-08-21T18:20:00;2.53;;;1.58;;
49340;SDS011;35209;51.050;13.678;2022-08-21T18:25:03;2.70;;;1.45;;
49340;SDS011;35209;51.050;13.678;2022-08-21T18:30:05;3.88;;;1.67;;
49340;SDS011;35209;51.050;13.678;2022-08-21T18:35:09;3.78;;;1.73;;
49340;SDS011;35209;51.050;13.678;2022-08-21T18:40:12;6.60;;;1.90;;
49340;SDS011;35209;51.050;13.678;2022-08-21T18:45:16;2.92;;;1.70;;
49340;SDS011;35209;51.050;13.678;2022-08-21T18:50:22;4.07;;;1.77;;
49340;SDS011;35209;51.050;13.678;2022-08-21T19:00:31;2.97;;;1.67;;
49340;SDS011;35209;51.050;13.678;2022-08-21T19:05:44;2.75;;;1.63;;
49340;SDS011;35209;51.050;13.678;2022-08-21T19:10:48;2.63;;;1.75;;
49340;SDS011;35209;51.050;13.678;2022-08-21T19:15:51;2.97;;;1.63;;
49340;SDS011;35209;51.050;13.678;2022-08-21T19:20:53;2.83;;;1.67;;
49340;SDS011;35209;51.050;13.678;2022-08-21T19:25:59;2.13;;;1.58;;
49340;SDS011;35209;51.050;13.678;2022-08-21T19:31:05;4.40;;;2.00;;
49340;SDS011;35209;51.050;13.678;2022-08-21T19:36:17;3.85;;;1.50;;
49340;SDS011;35209;51.050;13.678;2022-08-21T19:41:24;2.53;;;1.50;;
49340;SDS011;35209;51.050;13.678;2022-08-21T19:46:33;5.70;;;2.03;;
49340;SDS011;35209;51.050;13.678;2022-08-21T19:51:36;3.53;;;1.92;;
49340;SDS011;35209;51.050;13.678;2022-08-21T19:56:38;3.53;;;2.13;;
49340;SDS011;35209;51.050;13.678;2022-08-21T20:01:41;5.82;;;2.22;;
49340;SDS011;35209;51.050;13.678;2022-08-21T20:06:45;3.38;;;1.65;;
49340;SDS011;35209;51.050;13.678;2022-08-21T20:11:49;6.30;;;2.25;;
49340;SDS011;35209;51.050;13.678;2022-08-21T20:16:53;3.50;;;2.00;;
49340;SDS011;35209;51.050;13.678;2022-08-21T20:21:59;3.00;;;1.77;;
49340;SDS011;35209;51.050;13.678;2022-08-21T20:27:02;2.88;;;1.95;;
49340;SDS011;35209;51.050;13.678;2022-08-21T20:32:24;2.13;;;1.77;;
49340;SDS011;35209;51.050;13.678;2022-08-21T20:37:27;4.28;;;2.05;;
49340;SDS011;35209;51.050;13.678;2022-08-21T20:42:41;5.55;;;2.03;;
49340;SDS011;35209;51.050;13.678;2022-08-21T20:47:47;4.85;;;2.42;;
49340;SDS011;35209;51.050;13.678;2022-08-21T20:52:56;5.20;;;2.10;;
49340;SDS011;35209;51.050;13.678;2022-08-21T20:58:07;3.38;;;1.95;;
49340;SDS011;35209;51.050;13.678;2022-08-21T21:08:44;3.58;;;2.40;;
49340;SDS011;35209;51.050;13.678;2022-08-21T21:14:07;4.82;;;2.63;;
49340;SDS011;35209;51.050;13.678;2022-08-21T21:24:53;5.07;;;2.22;;
49340;SDS011;35209;51.050;13.678;2022-08-21T21:35:05;3.38;;;2.53;;
49340;SDS011;35209;51.050;13.678;2022-08-21T21:45:51;5.05;;;2.22;;
49340;SDS011;35209;51.050;13.678;2022-08-21T21:51:01;4.70;;;2.00;;
49340;SDS011;35209;51.050;13.678;2022-08-21T21:56:33;3.15;;;2.10;;
49340;SDS011;35209;51.050;13.678;2022-08-21T22:01:54;2.90;;;1.80;;
49340;SDS011;35209;51.050;13.678;2022-08-21T22:12:35;3.30;;;2.30;;
49340;SDS011;35209;51.050;13.678;2022-08-21T22:23:06;2.33;;;1.65;;
49340;SDS011;35209;51.050;13.678;2022-08-21T22:28:17;2.85;;;1.85;;
49340;SDS011;35209;51.050;13.678;2022-08-21T22:34:04;3.25;;;1.70;;
49340;SDS011;35209;51.050;13.678;2022-08-21T22:39:25;3.90;;;1.58;;
49340;SDS011;35209;51.050;13.678;2022-08-21T22:44:45;4.57;;;1.83;;
49340;SDS011;35209;51.050;13.678;2022-08-21T22:49:51;2.92;;;1.80;;
49340;SDS011;35209;51.050;13.678;2022-08-21T22:54:56;3.30;;;1.80;;
49340;SDS011;35209;51.050;13.678;2022-08-21T23:05:19;3.85;;;2.35;;
49340;SDS011;35209;51.050;13.678;2022-08-21T23:10:27;3.58;;;2.67;;
49340;SDS011;35209;51.050;13.678;2022-08-21T23:15:47;4.80;;;2.45;;
49340;SDS011;35209;51.050;13.678;2022-08-21T23:21:16;3.78;;;2.20;;
49340;SDS011;35209;51.050;13.678;2022-08-21T23:26:24;4.05;;;2.60;;
